createdAt,value
2019-01-24T00:01:46.688Z,100278.30
2019-01-24T00:04:16.928Z,100285.12
2019-01-24T00:06:46.653Z,100279.92
2019-01-24T00:09:16.409Z,100287.68
2019-01-24T00:11:46.325Z,100288.23
2019-01-24T00:14:16.257Z,100293.99
2019-01-24T00:16:46.674Z,100295.74
2019-01-24T00:19:16.391Z,100301.23
2019-01-24T00:21:46.318Z,100297.70
2019-01-24T00:24:16.225Z,100305.89
2019-01-24T00:26:45.905Z,100309.80
2019-01-24T00:29:16.011Z,100304.73
2019-01-24T00:31:46.068Z,100315.16
2019-01-24T00:34:23.058Z,100310.64
2019-01-24T00:36:48.879Z,100318.81
2019-01-24T00:39:18.545Z,100314.05
2019-01-24T00:41:48.374Z,100312.34
2019-01-24T00:44:18.285Z,100324.31
2019-01-24T00:46:47.978Z,100322.77
2019-01-24T00:49:18.817Z,100329.63
2019-01-24T00:51:48.489Z,100335.23
2019-01-24T00:54:18.256Z,100336.94
2019-01-24T00:56:48.446Z,100338.10
2019-01-24T00:59:18.371Z,100341.02
2019-01-24T01:01:48.361Z,100346.08
2019-01-24T01:04:18.659Z,100351.66
2019-01-24T01:06:48.867Z,100341.94
2019-01-24T01:09:18.613Z,100344.53
2019-01-24T01:11:49.089Z,100346.59
2019-01-24T01:14:19.229Z,100349.03
2019-01-24T01:16:49.637Z,100346.05
2019-01-24T01:19:19.516Z,100351.20
2019-01-24T01:21:51.777Z,100348.22
2019-01-24T01:24:22.376Z,100349.03
2019-01-24T01:26:52.407Z,100355.77
2019-01-24T01:29:22.080Z,100358.33
2019-01-24T01:31:51.745Z,100357.62
2019-01-24T01:34:21.729Z,100359.72
2019-01-24T01:36:51.769Z,100364.02
2019-01-24T01:39:22.130Z,100362.00
2019-01-24T01:41:53.893Z,100372.26
2019-01-24T01:44:24.196Z,100371.48
2019-01-24T01:46:54.106Z,100372.80
2019-01-24T01:49:24.023Z,100373.08
2019-01-24T01:51:53.925Z,100376.02
2019-01-24T01:54:24.741Z,100383.58
2019-01-24T01:56:54.672Z,100376.72
2019-01-24T01:59:24.598Z,100385.63
2019-01-24T02:01:54.543Z,100383.14
2019-01-24T02:04:24.518Z,100384.47
2019-01-24T02:06:54.942Z,100385.00
2019-01-24T02:09:24.855Z,100383.41
2019-01-24T02:11:54.773Z,100382.48
2019-01-24T02:14:24.686Z,100385.85
2019-01-24T02:16:54.657Z,100381.95
2019-01-24T02:19:26.513Z,100386.20
2019-01-24T02:21:56.254Z,100383.19
2019-01-24T02:24:26.447Z,100387.91
2019-01-24T02:26:56.249Z,100388.72
2019-01-24T02:29:26.000Z,100391.63
2019-01-24T02:31:55.755Z,100390.75
2019-01-24T02:34:25.430Z,100395.00
2019-01-24T02:36:55.597Z,100391.63
2019-01-24T02:39:25.362Z,100398.09
2019-01-24T02:41:55.017Z,100398.12
2019-01-24T02:44:25.989Z,100398.98
2019-01-24T02:46:56.339Z,100401.58
2019-01-24T02:49:27.892Z,100404.13
2019-01-24T02:51:58.009Z,100409.21
2019-01-24T02:54:28.048Z,100403.74
2019-01-24T02:56:57.726Z,100404.48
2019-01-24T02:59:27.442Z,100403.81
2019-01-24T03:01:57.606Z,100407.72
2019-01-24T03:04:27.845Z,100405.16
2019-01-24T03:06:57.887Z,100402.22
2019-01-24T03:09:28.008Z,100403.00
2019-01-24T03:11:57.923Z,100408.92
2019-01-24T03:14:28.341Z,100407.26
2019-01-24T03:17:02.538Z,100407.97
2019-01-24T03:19:33.195Z,100411.73
2019-01-24T03:22:03.151Z,100410.84
2019-01-24T03:24:32.836Z,100405.80
2019-01-24T03:27:03.150Z,100412.58
2019-01-24T03:29:33.444Z,100412.55
2019-01-24T03:32:03.504Z,100407.93
2019-01-24T03:34:33.579Z,100412.66
2019-01-24T03:37:03.331Z,100410.95
2019-01-24T03:39:33.114Z,100409.28
2019-01-24T03:42:03.029Z,100405.48
2019-01-24T03:44:33.207Z,100408.08
2019-01-24T03:47:03.407Z,100409.78
2019-01-24T03:49:33.395Z,100409.74
2019-01-24T03:52:03.069Z,100412.80
2019-01-24T03:54:32.801Z,100412.44
2019-01-24T03:57:02.917Z,100417.94
2019-01-24T03:59:32.606Z,100415.81
2019-01-24T04:02:03.278Z,100422.12
2019-01-24T04:04:33.330Z,100424.72
2019-01-24T04:07:03.095Z,100422.41
2019-01-24T04:09:32.770Z,100432.70
2019-01-24T04:12:02.911Z,100430.60
2019-01-24T04:14:32.893Z,100432.89
2019-01-24T04:17:02.577Z,100436.66
2019-01-24T04:19:32.431Z,100436.20
2019-01-24T04:22:02.276Z,100442.45
2019-01-24T04:24:32.225Z,100446.61
2019-01-24T04:27:01.909Z,100448.78
2019-01-24T04:29:32.617Z,100447.53
2019-01-24T04:32:03.294Z,100450.09
2019-01-24T04:34:34.472Z,100456.91
2019-01-24T04:37:04.739Z,100454.84
2019-01-24T04:39:34.725Z,100458.70
2019-01-24T04:42:05.351Z,100457.55
2019-01-24T04:44:35.477Z,100453.84
2019-01-24T04:47:05.789Z,100453.03
2019-01-24T04:49:35.841Z,100445.95
2019-01-24T04:52:05.853Z,100451.94
2019-01-24T04:54:35.747Z,100453.21
2019-01-24T04:57:06.536Z,100458.44
2019-01-24T04:59:36.216Z,100464.79
2019-01-24T05:02:06.536Z,100470.75
2019-01-24T05:04:36.234Z,100472.45
2019-01-24T05:07:06.321Z,100480.84
2019-01-24T05:09:36.705Z,100479.54
2019-01-24T05:12:06.702Z,100483.41
2019-01-24T05:14:37.147Z,100477.47
2019-01-24T05:17:08.905Z,100476.98
2019-01-24T05:19:38.873Z,100482.55
2019-01-24T05:22:09.096Z,100485.95
2019-01-24T05:24:39.303Z,100485.55
2019-01-24T05:27:10.092Z,100482.18
2019-01-24T05:29:40.006Z,100485.59
2019-01-24T05:32:10.593Z,100491.06
2019-01-24T05:34:41.004Z,100495.77
2019-01-24T05:37:11.633Z,100501.30
2019-01-24T05:39:41.638Z,100504.25
2019-01-24T05:42:12.011Z,100506.38
2019-01-24T05:44:42.105Z,100508.48
2019-01-24T05:47:12.116Z,100506.75
2019-01-24T05:49:43.685Z,100500.77
2019-01-24T05:52:19.441Z,100493.67
2019-01-24T05:54:45.345Z,100492.05
2019-01-24T05:57:15.018Z,100500.22
2019-01-24T05:59:44.927Z,100504.00
2019-01-24T06:02:14.821Z,100500.99
2019-01-24T06:04:44.486Z,100509.11
2019-01-24T06:07:14.929Z,100508.66
2019-01-24T06:09:45.130Z,100512.42
2019-01-24T06:12:15.062Z,100508.20
2019-01-24T06:14:44.848Z,100514.50
2019-01-24T06:17:15.837Z,100511.46
2019-01-24T06:19:45.716Z,100512.83
2019-01-24T06:22:16.433Z,100505.27
2019-01-24T06:24:47.382Z,100504.05
2019-01-24T06:27:19.146Z,100514.19
2019-01-24T06:29:49.369Z,100512.98
2019-01-24T06:32:19.274Z,100515.57
2019-01-24T06:34:49.112Z,100516.31
2019-01-24T06:37:18.777Z,100510.38
2019-01-24T06:39:48.710Z,100515.00
2019-01-24T06:42:19.189Z,100516.69
2019-01-24T06:44:49.361Z,100523.44
2019-01-24T06:47:19.639Z,100525.84
2019-01-24T06:49:49.348Z,100531.69
2019-01-24T06:52:19.194Z,100538.05
2019-01-24T06:54:48.868Z,100531.23
2019-01-24T06:57:19.220Z,100535.89
2019-01-24T06:59:49.897Z,100537.25
2019-01-24T07:02:19.580Z,100540.32
2019-01-24T07:04:51.920Z,100549.88
2019-01-24T07:07:22.473Z,100558.76
2019-01-24T07:09:57.303Z,100562.20
2019-01-24T07:12:26.986Z,100561.28
2019-01-24T07:14:57.370Z,100562.96
2019-01-24T07:17:27.857Z,100564.16
2019-01-24T07:19:57.913Z,100568.78
2019-01-24T07:22:40.471Z,100570.06
2019-01-24T07:25:14.440Z,100576.93
2019-01-24T07:33:34.037Z,100594.11
2019-01-24T07:36:06.227Z,100603.00
2019-01-24T07:38:36.786Z,100605.98
2019-01-24T07:41:06.897Z,100616.27
2019-01-24T07:43:36.735Z,100615.89
2019-01-24T07:46:06.793Z,100623.53
2019-01-24T07:48:37.880Z,100628.56
2019-01-24T07:51:08.456Z,100637.52
2019-01-24T07:53:38.217Z,100639.27
2019-01-24T07:56:08.627Z,100648.62
2019-01-24T07:58:38.365Z,100644.81
2019-01-24T08:01:09.225Z,100646.02
2019-01-24T08:03:39.107Z,100651.99
2019-01-24T08:06:13.943Z,100659.75
2019-01-24T08:08:43.630Z,100665.30
2019-01-24T08:11:14.979Z,100672.00
2019-01-24T08:13:44.665Z,100669.77
2019-01-24T08:16:15.592Z,100670.95
2019-01-24T08:18:46.580Z,100670.50
2019-01-24T08:21:16.252Z,100669.16
2019-01-24T08:23:46.373Z,100670.51
2019-01-24T08:26:16.062Z,100671.00
2019-01-24T08:28:46.023Z,100673.65
2019-01-24T08:31:16.922Z,100669.38
2019-01-24T08:33:47.061Z,100671.48
2019-01-24T08:36:16.820Z,100671.47
2019-01-24T08:38:47.794Z,100668.09
2019-01-24T08:41:24.441Z,100665.56
2019-01-24T08:43:55.419Z,100661.66
2019-01-24T08:49:20.508Z,100669.16
2019-01-24T08:51:52.147Z,100666.12
2019-01-24T08:54:21.829Z,100670.86
2019-01-24T08:56:51.523Z,100666.68
2019-01-24T08:59:21.523Z,100664.59
2019-01-24T09:01:51.447Z,100666.89
2019-01-24T09:04:23.555Z,100665.37
2019-01-24T09:06:55.021Z,100659.50
2019-01-24T09:09:25.396Z,100667.98
2019-01-24T09:11:56.270Z,100670.89
2019-01-24T09:14:26.770Z,100671.42
2019-01-24T09:16:56.454Z,100670.19
2019-01-24T09:19:26.470Z,100673.66
2019-01-24T09:21:56.245Z,100672.89
2019-01-24T09:24:26.796Z,100669.07
2019-01-24T09:26:56.772Z,100669.53
2019-01-24T09:29:28.406Z,100677.32
2019-01-24T09:31:58.768Z,100682.02
2019-01-24T09:34:28.462Z,100675.64
2019-01-24T09:36:59.210Z,100679.45
2019-01-24T09:39:28.979Z,100681.55
2019-01-24T09:41:59.657Z,100688.28
2019-01-24T09:44:30.339Z,100690.37
2019-01-24T09:47:00.040Z,100692.08
2019-01-24T09:49:29.715Z,100694.62
2019-01-24T09:52:00.697Z,100693.35
2019-01-24T09:54:30.648Z,100691.98
2019-01-24T09:57:00.939Z,100694.97
2019-01-24T09:59:30.805Z,100694.56
2019-01-24T10:02:01.186Z,100692.47
2019-01-24T10:04:30.872Z,100708.28
2019-01-24T10:07:02.459Z,100706.66
2019-01-24T10:09:32.918Z,100704.92
2019-01-24T10:12:04.228Z,100707.42
2019-01-24T10:14:35.371Z,100715.92
2019-01-24T10:17:05.622Z,100717.97
2019-01-24T10:19:37.227Z,100719.63
2019-01-24T10:22:08.833Z,100723.34
2019-01-24T10:24:39.338Z,100722.42
2019-01-24T10:27:11.881Z,100718.53
2019-01-24T10:29:43.431Z,100713.89
2019-01-24T10:32:13.393Z,100716.09
2019-01-24T10:34:43.146Z,100709.72
2019-01-24T10:37:13.881Z,100710.48
2019-01-24T10:39:45.180Z,100718.98
2019-01-24T10:42:17.762Z,100715.92
2019-01-24T10:44:47.592Z,100718.92
2019-01-24T10:47:17.583Z,100719.38
2019-01-24T10:49:49.850Z,100722.77
2019-01-24T10:52:19.786Z,100725.75
2019-01-24T10:54:49.470Z,100726.96
2019-01-24T10:57:21.173Z,100725.69
2019-01-24T10:59:51.702Z,100725.69
2019-01-24T11:02:21.370Z,100726.50
2019-01-24T11:04:51.345Z,100723.86
2019-01-24T11:07:21.382Z,100724.23
2019-01-24T11:09:52.205Z,100719.51
2019-01-24T11:12:22.045Z,100718.14
2019-01-24T11:14:52.717Z,100717.69
2019-01-24T11:17:22.938Z,100716.39
2019-01-24T11:19:55.635Z,100717.58
2019-01-24T11:22:25.439Z,100718.41
2019-01-24T11:24:55.601Z,100725.69
2019-01-24T11:27:25.671Z,100720.12
2019-01-24T11:29:56.397Z,100721.46
2019-01-24T11:32:26.892Z,100723.26
2019-01-24T11:34:57.269Z,100724.20
2019-01-24T11:37:26.946Z,100725.62
2019-01-24T11:39:57.102Z,100728.58
2019-01-24T11:42:26.775Z,100728.92
2019-01-24T11:44:56.773Z,100730.08
2019-01-24T11:47:26.454Z,100728.73
2019-01-24T11:49:56.704Z,100724.08
2019-01-24T11:52:26.784Z,100720.70
2019-01-24T11:54:56.933Z,100717.69
2019-01-24T11:57:26.857Z,100727.11
2019-01-24T11:59:56.702Z,100727.55
2019-01-24T12:02:26.604Z,100730.98
2019-01-24T12:04:56.518Z,100728.41
2019-01-24T12:07:27.498Z,100732.34
2019-01-24T12:09:58.245Z,100736.14
2019-01-24T12:12:27.939Z,100735.17
2019-01-24T12:14:57.617Z,100732.58
2019-01-24T12:17:28.306Z,100727.47
2019-01-24T12:19:58.587Z,100722.44
2019-01-24T12:22:29.421Z,100721.10
2019-01-24T12:24:59.218Z,100719.38
2019-01-24T12:27:28.905Z,100724.09
2019-01-24T12:29:59.200Z,100723.75
2019-01-24T12:32:29.257Z,100725.45
2019-01-24T12:34:59.179Z,100728.79
2019-01-24T12:37:29.533Z,100727.47
2019-01-24T12:39:59.442Z,100725.22
2019-01-24T12:42:30.365Z,100733.64
2019-01-24T12:45:00.370Z,100732.28
2019-01-24T12:47:30.051Z,100738.69
2019-01-24T12:49:59.807Z,100735.22
2019-01-24T12:52:29.802Z,100734.45
2019-01-24T12:54:59.494Z,100733.59
2019-01-24T12:57:29.158Z,100729.73
2019-01-24T12:59:59.833Z,100718.28
2019-01-24T13:02:30.993Z,100720.47
2019-01-24T13:05:01.052Z,100714.17
2019-01-24T13:07:30.731Z,100718.83
2019-01-24T13:10:00.725Z,100720.11
2019-01-24T13:12:31.766Z,100710.29
2019-01-24T13:15:02.085Z,100712.32
2019-01-24T13:17:31.778Z,100714.83
2019-01-24T13:20:02.840Z,100719.06
2019-01-24T13:22:32.521Z,100730.11
2019-01-24T13:25:02.447Z,100734.39
2019-01-24T13:27:32.321Z,100740.23
2019-01-24T13:30:03.260Z,100736.00
2019-01-24T13:32:34.170Z,100742.06
2019-01-24T13:35:04.510Z,100742.98
2019-01-24T13:37:34.411Z,100732.01
2019-01-24T13:40:04.871Z,100722.76
2019-01-24T13:42:36.969Z,100732.15
2019-01-24T13:45:10.558Z,100737.61
2019-01-24T13:47:40.489Z,100753.70
2019-01-24T13:50:14.216Z,100750.27
2019-01-24T13:52:44.603Z,100744.24
2019-01-24T13:55:14.935Z,100745.97
2019-01-24T13:57:44.763Z,100748.53
2019-01-24T14:00:22.966Z,100747.22
2019-01-24T14:03:08.371Z,100749.78
2019-01-24T14:05:38.460Z,100740.34
2019-01-24T14:08:08.443Z,100737.68
2019-01-24T14:10:39.817Z,100744.04
2019-01-24T14:13:09.801Z,100738.00
2019-01-24T14:15:39.638Z,100740.08
2019-01-24T14:18:09.734Z,100736.61
2019-01-24T14:20:40.966Z,100726.92
2019-01-24T14:23:10.730Z,100724.87
2019-01-24T14:25:41.935Z,100724.09
2019-01-24T14:28:11.973Z,100719.44
2019-01-24T14:30:41.670Z,100724.57
2019-01-24T14:33:13.659Z,100723.87
2019-01-24T14:35:43.738Z,100728.42
2019-01-24T14:38:13.618Z,100728.05
2019-01-24T14:40:43.412Z,100744.09
2019-01-24T14:43:13.373Z,100747.02
2019-01-24T14:45:43.986Z,100744.81
2019-01-24T14:48:13.738Z,100750.70
2019-01-24T14:50:43.515Z,100747.65
2019-01-24T14:53:13.347Z,100748.45
2019-01-24T14:55:43.184Z,100754.81
2019-01-24T14:58:16.598Z,100757.39
2019-01-24T15:00:50.637Z,100761.77
2019-01-24T15:03:30.130Z,100759.20
2019-01-24T15:06:00.986Z,100777.11
2019-01-24T15:08:30.978Z,100785.27
2019-01-24T15:11:00.882Z,100789.48
2019-01-24T15:13:30.795Z,100783.11
2019-01-24T15:16:00.813Z,100782.24
2019-01-24T15:18:32.354Z,100786.41
2019-01-24T15:21:02.454Z,100781.75
2019-01-24T15:23:32.261Z,100780.92
2019-01-24T15:26:05.975Z,100785.22
2019-01-24T15:28:37.427Z,100790.30
2019-01-24T15:31:08.853Z,100794.55
2019-01-24T15:33:40.937Z,100793.77
2019-01-24T15:36:11.012Z,100800.25
2019-01-24T15:38:41.296Z,100805.39
2019-01-24T15:41:12.814Z,100799.00
2019-01-24T15:43:42.591Z,100801.19
2019-01-24T15:46:12.481Z,100802.64
2019-01-24T15:48:43.192Z,100806.97
2019-01-24T15:51:13.246Z,100807.45
2019-01-24T15:53:42.933Z,100801.80
2019-01-24T15:56:12.766Z,100797.53
2019-01-24T16:01:24.891Z,100800.47
2019-01-24T16:06:50.491Z,100800.50
2019-01-24T16:09:22.165Z,100805.27
2019-01-24T16:11:52.303Z,100812.11
2019-01-24T16:14:21.972Z,100816.39
2019-01-24T16:16:51.657Z,100813.82
2019-01-24T16:19:22.034Z,100816.00
2019-01-24T16:21:52.796Z,100819.83
2019-01-24T16:24:22.552Z,100825.33
2019-01-24T16:26:52.306Z,100829.25
2019-01-24T16:29:22.000Z,100830.59
2019-01-24T16:31:51.690Z,100836.95
2019-01-24T16:34:21.686Z,100843.29
2019-01-24T16:36:52.035Z,100838.54
2019-01-24T16:39:22.859Z,100841.95
2019-01-24T16:41:53.151Z,100842.83
2019-01-24T16:44:24.006Z,100853.46
2019-01-24T16:46:54.275Z,100852.58
2019-01-24T16:49:23.968Z,100850.00
2019-01-24T16:54:47.518Z,100860.61
2019-01-24T16:57:17.187Z,100861.44
2019-01-24T16:59:46.959Z,100865.70
2019-01-24T17:02:16.874Z,100869.92
2019-01-24T17:04:46.655Z,100871.20
2019-01-24T17:07:16.330Z,100878.84
2019-01-24T17:12:32.773Z,100870.28
2019-01-24T17:15:02.524Z,100870.28
2019-01-24T17:17:33.390Z,100880.08
2019-01-24T17:20:03.183Z,100882.17
2019-01-24T17:22:33.024Z,100880.55
2019-01-24T17:25:02.716Z,100881.39
2019-01-24T17:27:32.435Z,100880.55
2019-01-24T17:30:02.118Z,100891.73
2019-01-24T17:32:32.057Z,100890.00
2019-01-24T17:35:03.211Z,100888.67
2019-01-24T17:37:32.920Z,100879.32
2019-01-24T17:40:04.123Z,100882.30
2019-01-24T17:42:34.766Z,100882.73
2019-01-24T17:47:59.068Z,100889.50
2019-01-24T17:50:28.890Z,100891.25
2019-01-24T17:52:58.963Z,100891.69
2019-01-24T17:55:35.296Z,100889.98
2019-01-24T17:58:07.878Z,100892.55
2019-01-24T18:00:41.379Z,100901.48
2019-01-24T18:03:11.807Z,100909.62
2019-01-24T18:05:42.045Z,100916.39
2019-01-24T18:08:12.382Z,100915.91
2019-01-24T18:10:42.795Z,100912.47
2019-01-24T18:13:12.477Z,100915.45
2019-01-24T18:15:43.046Z,100929.88
2019-01-24T18:18:14.477Z,100929.88
2019-01-24T18:20:44.895Z,100934.09
2019-01-24T18:23:15.187Z,100936.22
2019-01-24T18:25:45.546Z,100934.47
2019-01-24T18:28:15.408Z,100933.61
2019-01-24T18:30:45.380Z,100930.21
2019-01-24T18:33:15.249Z,100937.46
2019-01-24T18:35:45.013Z,100947.23
2019-01-24T18:38:16.919Z,100935.37
2019-01-24T18:40:47.987Z,100947.70
2019-01-24T18:43:22.006Z,100954.10
2019-01-24T18:45:52.877Z,100960.05
2019-01-24T18:48:22.648Z,100968.95
2019-01-24T18:50:52.412Z,100967.30
2019-01-24T18:53:22.167Z,100965.20
2019-01-24T18:55:54.177Z,100963.05
2019-01-24T18:58:23.860Z,100965.18
2019-01-24T19:00:53.595Z,100960.49
2019-01-24T19:03:24.488Z,100963.88
2019-01-24T19:05:54.511Z,100971.11
2019-01-24T19:08:24.209Z,100966.84
2019-01-24T19:10:54.750Z,100971.98
2019-01-24T19:13:24.516Z,100965.24
2019-01-24T19:18:49.814Z,100976.77
2019-01-24T19:21:19.522Z,100973.78
2019-01-24T19:23:49.825Z,100973.78
2019-01-24T19:29:16.701Z,100972.95
2019-01-24T19:31:46.475Z,100966.99
2019-01-24T19:37:11.528Z,100981.98
2019-01-24T19:39:41.509Z,100980.72
2019-01-24T19:42:11.803Z,100985.46
2019-01-24T19:44:41.719Z,100996.58
2019-01-24T19:50:07.951Z,100993.58
2019-01-24T19:52:40.435Z,100983.31
2019-01-24T19:55:11.327Z,100975.19
2019-01-24T19:57:45.844Z,100976.86
2019-01-24T20:00:18.451Z,100978.98
2019-01-24T20:02:48.594Z,100984.52
2019-01-24T20:05:20.342Z,100990.07
2019-01-24T20:07:50.388Z,100987.94
2019-01-24T20:10:22.785Z,100975.17
2019-01-24T20:12:53.869Z,100977.70
2019-01-24T20:15:26.334Z,100975.93
2019-01-24T20:17:56.345Z,100965.67
2019-01-24T20:20:26.162Z,100971.61
2019-01-24T20:22:56.551Z,100975.86
2019-01-24T20:25:28.463Z,100972.03
2019-01-24T20:27:59.904Z,100978.45
2019-01-24T20:30:32.354Z,100976.77
2019-01-24T20:33:04.021Z,100967.06
2019-01-24T20:35:52.396Z,100976.91
2019-01-24T20:38:22.204Z,100990.05
2019-01-24T20:40:51.937Z,100993.00
2019-01-24T20:43:23.367Z,100995.08
2019-01-24T20:45:53.470Z,100995.89
2019-01-24T20:48:23.722Z,100992.06
2019-01-24T20:50:55.041Z,100989.48
2019-01-24T20:53:25.140Z,100998.42
2019-01-24T20:55:55.127Z,100990.73
2019-01-24T20:58:25.039Z,100991.22
2019-01-24T21:00:55.304Z,100995.91
2019-01-24T21:03:26.217Z,100989.48
2019-01-24T21:06:09.274Z,100993.80
2019-01-24T21:08:41.168Z,100994.68
2019-01-24T21:11:11.572Z,100992.59
2019-01-24T21:13:45.078Z,100994.76
2019-01-24T21:16:15.503Z,100999.39
2019-01-24T21:18:45.486Z,100999.39
2019-01-24T21:21:15.299Z,100998.52
2019-01-24T21:23:45.315Z,100993.80
2019-01-24T21:26:15.149Z,101004.88
2019-01-24T21:28:45.421Z,101007.02
2019-01-24T21:31:15.147Z,101009.58
2019-01-24T21:33:45.123Z,101004.45
2019-01-24T21:36:14.867Z,101009.11
2019-01-24T21:38:44.600Z,101006.96
2019-01-24T21:41:14.346Z,101009.11
2019-01-24T21:43:44.154Z,101003.97
2019-01-24T21:46:14.679Z,101000.56
2019-01-24T21:48:44.408Z,101003.11
2019-01-24T21:51:14.173Z,101001.40
2019-01-24T21:53:44.055Z,100998.86
2019-01-24T21:56:14.366Z,101001.02
2019-01-24T21:58:44.521Z,101009.56
2019-01-24T22:01:14.343Z,101005.73
2019-01-24T22:03:45.832Z,101010.84
2019-01-24T22:06:15.813Z,100996.39
2019-01-24T22:08:45.542Z,101000.23
2019-01-24T22:11:16.022Z,101003.27
2019-01-24T22:13:45.755Z,101008.81
2019-01-24T22:16:16.132Z,101019.48
2019-01-24T22:18:45.870Z,101025.48
2019-01-24T22:21:15.676Z,101028.02
2019-01-24T22:23:47.467Z,101039.10
2019-01-24T22:26:18.205Z,101050.16
2019-01-24T22:28:48.891Z,101046.78
2019-01-24T22:31:18.831Z,101047.63
2019-01-24T22:33:49.256Z,101040.41
2019-01-24T22:36:19.555Z,101042.98
2019-01-24T22:38:50.201Z,101048.52
2019-01-24T22:41:19.934Z,101045.56
2019-01-24T22:43:50.863Z,101048.98
2019-01-24T22:46:20.651Z,101051.52
2019-01-24T22:48:51.426Z,101045.14
2019-01-24T22:51:21.547Z,101052.36
2019-01-24T22:53:51.571Z,101043.84
2019-01-24T22:56:22.278Z,101049.78
2019-01-24T22:58:52.237Z,101054.02
2019-01-24T23:01:41.557Z,101056.95
2019-01-24T23:04:14.087Z,101056.55
2019-01-24T23:06:44.265Z,101060.37
2019-01-24T23:09:16.452Z,101060.38
2019-01-24T23:11:46.353Z,101064.63
2019-01-24T23:14:16.096Z,101065.03
2019-01-24T23:16:45.813Z,101066.75
2019-01-24T23:19:15.775Z,101059.95
2019-01-24T23:21:45.559Z,101057.80
2019-01-24T23:24:15.292Z,101060.78
2019-01-24T23:26:45.033Z,101056.11
2019-01-24T23:29:15.222Z,101052.69
2019-01-24T23:31:44.958Z,101055.69
2019-01-24T23:34:15.875Z,101049.31
2019-01-24T23:36:45.608Z,101049.31
2019-01-24T23:39:16.834Z,101048.03
2019-01-24T23:41:46.575Z,101045.03
2019-01-24T23:44:16.301Z,101041.61
2019-01-24T23:46:46.031Z,101043.31
2019-01-24T23:49:15.847Z,101050.56
2019-01-24T23:51:45.954Z,101048.01
2019-01-24T23:54:15.712Z,101040.81
2019-01-24T23:56:45.430Z,101032.72
2019-01-24T23:59:15.163Z,101038.23
